Time;durP1;ratioP1;P1;durP2;ratioP2;P2;SDS_P1;SDS_P2;PMS_P1;PMS_P2;Temp;Humidity;BMP_temperature;BMP_pressure;BME280_temperature;BME280_humidity;BME280_pressure;Samples;Min_cycle;Max_cycle;Signal;HPM_P1;HPM_P2
2023/08/10 00:01:24;;;;;;;2.65;2.33;;;;;;;15.32;80.27;96012.69;5018867;28;20214;-84
2023/08/10 00:03:50;;;;;;;2.80;2.40;;;;;;;15.34;80.16;96015.94;5026584;28;20198;-84
2023/08/10 00:06:15;;;;;;;2.97;2.58;;;;;;;15.32;80.70;96011.88;5015260;28;20218;-85
2023/08/10 00:08:40;;;;;;;2.70;2.50;;;;;;;15.28;80.36;96011.34;5014547;28;20179;-85
2023/08/10 00:11:06;;;;;;;3.22;2.75;;;;;;;15.11;80.73;96001.91;5021156;28;20241;-86
2023/08/10 00:13:32;;;;;;;3.58;2.63;;;;;;;15.21;80.72;96010.41;5025667;28;20179;-85
2023/08/10 00:15:57;;;;;;;3.05;2.50;;;;;;;15.12;80.62;96011.41;5015383;28;20203;-85
2023/08/10 00:18:23;;;;;;;2.88;2.60;;;;;;;15.10;80.72;96008.09;5022356;28;20183;-84
2023/08/10 00:20:48;;;;;;;3.20;2.80;;;;;;;15.09;81.20;96009.09;5021399;28;20209;-85
2023/08/10 00:23:13;;;;;;;3.28;2.08;;;;;;;15.15;80.71;96009.25;5014883;28;20675;-84
2023/08/10 00:25:39;;;;;;;4.18;2.40;;;;;;;15.12;80.33;96016.63;5022992;28;20647;-86
2023/08/10 00:28:04;;;;;;;2.65;2.45;;;;;;;15.12;80.88;96000.94;5007690;28;20574;-85
2023/08/10 00:30:30;;;;;;;2.42;2.22;;;;;;;14.93;81.05;96012.50;5025935;28;20183;-85
2023/08/10 00:32:55;;;;;;;2.70;2.50;;;;;;;14.98;81.48;96007.63;5030720;28;20229;-85
2023/08/10 00:35:21;;;;;;;2.60;2.40;;;;;;;15.00;80.75;96003.84;5022396;28;20186;-85
2023/08/10 00:37:46;;;;;;;3.05;2.33;;;;;;;15.01;80.76;96009.91;5025250;28;20265;-86
2023/08/10 00:40:12;;;;;;;2.50;2.30;;;;;;;14.98;80.70;96013.66;5025836;28;20198;-85
2023/08/10 00:42:38;;;;;;;3.17;2.30;;;;;;;14.94;80.98;96004.53;5038853;28;20645;-84
2023/08/10 00:45:04;;;;;;;3.17;2.60;;;;;;;14.97;81.20;96006.81;5030258;28;20182;-85
2023/08/10 00:47:29;;;;;;;2.90;2.70;;;;;;;14.91;80.93;96004.84;5026190;28;20722;-84
2023/08/10 00:49:54;;;;;;;4.30;3.20;;;;;;;14.85;80.58;96008.13;5025462;28;20687;-84
2023/08/10 00:52:20;;;;;;;2.53;2.33;;;;;;;14.91;80.74;96007.44;5024218;28;20190;-86
2023/08/10 00:54:45;;;;;;;3.47;2.40;;;;;;;14.90;80.39;96008.44;5020706;28;20194;-85
2023/08/10 00:57:11;;;;;;;2.90;2.60;;;;;;;14.86;80.42;96016.78;5023415;28;20351;-85
2023/08/10 00:59:37;;;;;;;8.05;2.80;;;;;;;14.89;79.96;96006.81;5017065;28;20571;-84
2023/08/10 01:02:03;;;;;;;4.17;3.00;;;;;;;14.84;80.28;96009.09;5022852;28;20199;-83
2023/08/10 01:04:28;;;;;;;3.78;2.40;;;;;;;14.79;80.86;96002.72;5016772;28;20226;-84
2023/08/10 01:07:10;;;;;;;3.03;2.50;;;;;;;14.84;80.57;96011.72;5020797;28;20198;-83
2023/08/10 01:10:03;;;;;;;2.77;2.57;;;;;;;14.83;79.59;96006.63;5025697;28;20597;-85
2023/08/10 01:12:42;;;;;;;3.23;2.37;;;;;;;14.80;79.67;96004.34;5024639;28;20183;-84
2023/08/10 01:15:30;;;;;;;3.83;2.53;;;;;;;14.80;79.07;96006.97;5003706;28;20214;-84
2023/08/10 01:17:57;;;;;;;3.27;2.70;;;;;;;14.78;78.60;96006.31;5023061;28;20629;-85
2023/08/10 01:20:23;;;;;;;4.47;2.57;;;;;;;14.78;78.44;96004.50;5014533;28;20194;-84
2023/08/10 01:23:00;;;;;;;3.10;2.50;;;;;;;14.76;78.74;96011.72;5011583;28;20225;-83
2023/08/10 01:25:26;;;;;;;4.20;2.80;;;;;;;14.77;78.51;96015.13;5027063;28;20685;-82
2023/08/10 01:27:52;;;;;;;2.80;2.60;;;;;;;14.68;78.23;96012.50;5021484;28;20190;-83
2023/08/10 01:30:17;;;;;;;2.70;2.47;;;;;;;14.72;77.27;96005.16;5019292;28;20664;-84
2023/08/10 01:32:43;;;;;;;2.77;2.27;;;;;;;14.67;77.08;96012.69;5011202;28;20315;-83
2023/08/10 01:35:10;;;;;;;2.33;2.13;;;;;;;14.63;77.77;96012.16;5024385;28;20214;-83
2023/08/10 01:37:36;;;;;;;3.10;2.80;;;;;;;14.65;77.12;96010.19;5025335;28;20286;-85
2023/08/10 01:40:06;;;;;;;2.60;2.40;;;;;;;14.63;77.05;96003.50;5019173;28;20178;-83
2023/08/10 01:42:32;;;;;;;2.75;2.35;;;;;;;14.52;77.64;96003.81;5030475;28;20203;-84
2023/08/10 01:44:57;;;;;;;2.80;2.47;;;;;;;14.48;77.31;96008.53;5022977;28;20187;-84
2023/08/10 01:47:36;;;;;;;3.33;2.90;;;;;;;14.49;76.82;95999.75;5003142;28;20215;-84
2023/08/10 01:50:06;;;;;;;2.80;2.60;;;;;;;14.48;76.41;96003.31;5019881;28;20224;-83
2023/08/10 01:52:46;;;;;;;3.33;2.50;;;;;;;14.56;75.37;96005.94;5028386;28;20189;-83
2023/08/10 01:55:14;;;;;;;2.83;2.40;;;;;;;14.47;75.30;96006.91;5021433;28;20192;-85
2023/08/10 01:57:39;;;;;;;3.00;2.70;;;;;;;14.39;75.97;96005.06;5042837;28;20203;-84
2023/08/10 02:00:06;;;;;;;2.57;2.37;;;;;;;14.42;74.84;96009.97;5013918;28;20276;-85
2023/08/10 02:02:32;;;;;;;2.60;2.37;;;;;;;14.38;74.89;96007.84;5020063;28;20210;-84
2023/08/10 02:04:58;;;;;;;3.27;2.20;;;;;;;14.45;74.28;96004.47;5016902;28;20199;-84
2023/08/10 02:07:24;;;;;;;2.93;2.60;;;;;;;14.43;74.22;96011.63;5025423;28;20293;-85
2023/08/10 02:09:50;;;;;;;3.10;2.50;;;;;;;14.34;73.82;96009.97;5013359;28;20218;-84
2023/08/10 02:12:15;;;;;;;2.87;2.47;;;;;;;14.37;73.75;96012.25;5023599;28;20211;-84
2023/08/10 02:14:40;;;;;;;2.70;2.50;;;;;;;14.28;73.15;96007.97;5032791;28;20178;-85
2023/08/10 02:17:06;;;;;;;3.30;2.50;;;;;;;14.24;72.85;96004.06;5029598;28;20211;-85
2023/08/10 02:19:33;;;;;;;2.30;2.10;;;;;;;14.15;73.73;96007.63;5014569;28;20264;-84
2023/08/10 02:21:59;;;;;;;3.77;2.60;;;;;;;14.20;74.02;96010.56;5012919;28;20281;-84
2023/08/10 02:24:24;;;;;;;3.50;2.80;;;;;;;14.06;74.80;96011.19;5008553;28;20187;-85
2023/08/10 02:26:49;;;;;;;4.13;2.60;;;;;;;13.99;75.64;96002.34;5020431;28;20756;-83
2023/08/10 02:29:15;;;;;;;3.27;2.60;;;;;;;13.96;75.32;96007.84;5012164;28;20656;-84
2023/08/10 02:31:40;;;;;;;2.47;2.27;;;;;;;13.81;75.56;96003.25;5004286;28;20699;-84
2023/08/10 02:34:06;;;;;;;2.83;2.57;;;;;;;14.07;74.57;96004.97;5011839;28;20274;-84
2023/08/10 02:36:31;;;;;;;3.20;2.90;;;;;;;14.05;74.56;95997.31;5012579;28;20206;-85
2023/08/10 02:38:57;;;;;;;2.70;2.47;;;;;;;14.09;74.33;96003.03;5030203;28;20186;-85
2023/08/10 02:41:22;;;;;;;2.80;2.57;;;;;;;14.10;73.98;95994.22;5023049;28;20246;-86
2023/08/10 02:43:47;;;;;;;2.67;2.40;;;;;;;14.13;73.50;95993.88;5027158;28;20201;-84
2023/08/10 02:46:13;;;;;;;2.73;2.30;;;;;;;14.01;73.27;95990.75;5010962;28;20340;-84
2023/08/10 02:48:38;;;;;;;4.10;2.67;;;;;;;14.11;73.30;95995.84;5021365;28;20218;-85
2023/08/10 02:51:04;;;;;;;3.00;2.70;;;;;;;14.02;74.00;95991.56;5020896;28;20274;-85
2023/08/10 02:53:30;;;;;;;3.00;2.63;;;;;;;14.08;73.97;95996.16;5023112;28;20198;-84
2023/08/10 02:55:57;;;;;;;2.67;2.47;;;;;;;14.02;74.07;95999.41;5003240;28;20229;-85
2023/08/10 02:58:23;;;;;;;4.40;2.40;;;;;;;14.13;73.64;95999.94;5009100;28;20194;-85
2023/08/10 03:00:49;;;;;;;2.63;2.10;;;;;;;14.05;73.97;95996.50;5025028;28;20644;-85
2023/08/10 03:03:14;;;;;;;3.90;2.57;;;;;;;14.13;73.73;95999.94;5028294;28;20265;-84
2023/08/10 03:05:40;;;;;;;2.73;2.33;;;;;;;14.02;74.41;95994.19;5011464;28;20233;-84
2023/08/10 03:08:05;;;;;;;2.63;2.43;;;;;;;14.04;74.24;95994.84;5017671;28;20187;-85
2023/08/10 03:10:31;;;;;;;3.43;2.57;;;;;;;14.03;74.76;95995.81;5019027;28;20644;-85
2023/08/10 03:12:56;;;;;;;3.40;2.97;;;;;;;13.99;74.94;95991.91;5008337;28;20688;-84
2023/08/10 03:15:22;;;;;;;3.37;2.63;;;;;;;14.06;74.51;95982.47;5012232;28;21089;-85
2023/08/10 03:17:47;;;;;;;5.17;2.87;;;;;;;13.95;75.40;95995.78;5014185;28;20691;-85
2023/08/10 03:20:14;;;;;;;3.73;2.57;;;;;;;13.91;76.06;95997.09;5014471;28;20182;-84
2023/08/10 03:22:42;;;;;;;2.73;2.53;;;;;;;13.66;77.65;96006.59;5012297;28;20584;-85
2023/08/10 03:25:15;;;;;;;2.63;2.43;;;;;;;13.80;77.56;96003.41;5015900;28;20182;-85
2023/08/10 03:27:40;;;;;;;2.73;2.53;;;;;;;13.76;77.73;95994.22;5025179;28;20218;-84
2023/08/10 03:30:06;;;;;;;3.00;2.80;;;;;;;13.69;78.21;96006.25;5010211;28;20551;-85
2023/08/10 03:32:32;;;;;;;3.63;2.63;;;;;;;13.82;77.66;96002.25;5025277;28;20241;-84
2023/08/10 03:34:57;;;;;;;3.30;2.23;;;;;;;13.87;77.28;96000.03;5034824;28;20175;-84
2023/08/10 03:37:22;;;;;;;3.17;2.87;;;;;;;13.92;77.00;95996.91;5048377;28;20202;-83
2023/08/10 03:39:48;;;;;;;4.37;2.90;;;;;;;13.87;76.99;96004.41;5041301;28;20174;-84
2023/08/10 03:42:13;;;;;;;3.47;2.27;;;;;;;13.80;77.16;95999.00;5042644;28;20227;-84
2023/08/10 03:44:38;;;;;;;3.67;2.60;;;;;;;13.92;76.70;96006.53;5040103;28;20179;-84
2023/08/10 03:47:04;;;;;;;3.07;2.70;;;;;;;13.93;76.21;96001.16;5020260;28;20211;-84
2023/08/10 03:49:29;;;;;;;3.27;2.97;;;;;;;13.86;76.08;96002.75;5021756;28;20195;-84
2023/08/10 03:51:55;;;;;;;5.80;3.23;;;;;;;13.89;76.05;96008.50;5023237;28;20620;-84
2023/08/10 03:54:20;;;;;;;2.67;2.47;;;;;;;13.85;75.61;95996.72;5021819;28;20233;-85
2023/08/10 03:56:47;;;;;;;4.20;2.70;;;;;;;13.92;75.04;95998.72;5016910;28;20210;-84
2023/08/10 03:59:13;;;;;;;2.80;2.53;;;;;;;13.95;74.74;96006.22;5027813;28;20273;-85
2023/08/10 04:01:39;;;;;;;2.80;2.50;;;;;;;14.04;74.38;95992.22;5026357;28;20632;-86
2023/08/10 04:04:07;;;;;;;2.87;2.53;;;;;;;13.99;74.69;95990.09;5020298;28;20262;-85
2023/08/10 04:06:32;;;;;;;5.13;2.80;;;;;;;14.01;74.35;95997.78;5022642;28;20234;-85
2023/08/10 04:08:57;;;;;;;3.53;3.03;;;;;;;13.86;74.51;96008.78;5014709;28;20214;-85
2023/08/10 04:11:23;;;;;;;3.03;2.80;;;;;;;13.86;74.59;96011.41;5008360;28;20187;-85
2023/08/10 04:13:48;;;;;;;4.67;2.97;;;;;;;13.79;75.38;96001.78;5025405;28;20186;-85
2023/08/10 04:16:14;;;;;;;3.00;2.80;;;;;;;13.82;75.23;96010.09;5007755;28;20307;-85
2023/08/10 04:18:42;;;;;;;2.80;2.60;;;;;;;13.99;74.51;96007.56;5016750;28;20179;-85
2023/08/10 04:21:08;;;;;;;4.97;2.77;;;;;;;13.97;74.81;96006.91;5014674;28;20246;-85
2023/08/10 04:23:34;;;;;;;2.90;2.70;;;;;;;14.08;73.98;96012.66;5015414;28;20281;-85
2023/08/10 04:25:59;;;;;;;3.77;2.83;;;;;;;14.09;73.96;96019.50;5013739;28;20234;-86
2023/08/10 04:28:24;;;;;;;3.70;2.70;;;;;;;14.15;74.01;96020.69;5007457;28;20280;-85
2023/08/10 04:30:50;;;;;;;5.30;2.83;;;;;;;14.06;73.83;96027.66;5003060;28;20251;-85
2023/08/10 04:33:15;;;;;;;3.50;2.80;;;;;;;14.21;73.42;96025.25;5029109;28;20222;-85
2023/08/10 04:35:41;;;;;;;3.57;2.70;;;;;;;14.30;72.99;96026.09;4999227;28;20237;-85
2023/08/10 04:38:06;;;;;;;2.80;2.60;;;;;;;14.38;72.85;96018.28;5014381;28;20206;-85
2023/08/10 04:40:32;;;;;;;3.13;2.70;;;;;;;14.48;72.83;96026.00;5016708;28;20183;-85
2023/08/10 04:42:58;;;;;;;5.30;3.23;;;;;;;14.54;72.33;96026.19;5026060;28;20206;-84
2023/08/10 04:45:24;;;;;;;4.33;2.80;;;;;;;14.52;72.55;96019.50;5011631;28;20233;-85
2023/08/10 04:47:50;;;;;;;4.20;2.30;;;;;;;14.62;72.38;96028.84;5007206;28;20195;-85
2023/08/10 04:50:15;;;;;;;3.57;2.87;;;;;;;14.56;72.85;96021.63;5017076;28;20205;-85
2023/08/10 04:52:41;;;;;;;5.70;2.67;;;;;;;14.65;72.88;96022.47;4997635;28;20195;-84
2023/08/10 04:55:07;;;;;;;3.50;2.57;;;;;;;14.73;72.53;96027.69;5002626;28;20218;-85
2023/08/10 04:57:33;;;;;;;4.00;2.70;;;;;;;14.53;73.25;96026.38;5015825;28;20203;-85
2023/08/10 05:00:07;;;;;;;2.83;2.60;;;;;;;14.62;72.99;96031.44;5013784;28;20197;-85
2023/08/10 05:02:34;;;;;;;3.93;2.63;;;;;;;15.02;71.97;96019.41;5024252;28;20206;-85
2023/08/10 05:04:59;;;;;;;2.63;2.30;;;;;;;16.96;65.97;96019.75;5022777;28;20229;-85
2023/08/10 05:07:25;;;;;;;2.45;2.20;;;;;;;19.05;57.34;96030.03;5035539;28;20797;-85
2023/08/10 05:09:50;;;;;;;2.80;2.13;;;;;;;20.26;53.52;96031.53;5026328;28;20252;-85
2023/08/10 05:12:17;;;;;;;2.00;1.90;;;;;;;22.05;49.61;96024.66;5028293;28;20278;-86
2023/08/10 05:14:48;;;;;;;2.17;1.98;;;;;;;22.09;47.04;96028.56;5026065;28;20183;-86
2023/08/10 05:17:14;;;;;;;4.60;1.80;;;;;;;22.29;47.29;96042.53;5024418;28;20224;-84
2023/08/10 05:19:42;;;;;;;2.72;1.67;;;;;;;22.17;46.81;96040.72;5001914;28;20740;-86
2023/08/10 05:22:07;;;;;;;2.72;1.70;;;;;;;20.97;49.56;96042.53;5004780;28;20246;-86
2023/08/10 05:24:33;;;;;;;2.67;1.85;;;;;;;20.09;51.50;96046.84;5011286;28;20281;-85
2023/08/10 05:27:00;;;;;;;3.55;2.00;;;;;;;19.58;54.11;96043.69;5018061;28;20199;-85
2023/08/10 05:29:35;;;;;;;1.70;1.60;;;;;;;18.64;58.20;96041.97;4998874;28;20201;-85
2023/08/10 05:32:00;;;;;;;3.05;2.25;;;;;;;18.45;59.47;96053.03;5029620;28;20702;-85
2023/08/10 05:34:26;;;;;;;2.58;2.15;;;;;;;18.35;62.38;96055.13;5018627;28;20187;-84
2023/08/10 05:37:03;;;;;;;3.47;2.10;;;;;;;18.57;61.79;96056.84;5015022;28;20211;-86
2023/08/10 05:39:31;;;;;;;2.28;2.08;;;;;;;18.19;62.73;96055.34;5014249;28;20178;-85
2023/08/10 05:41:56;;;;;;;3.38;2.10;;;;;;;18.10;65.34;96055.44;5034876;28;20191;-85
2023/08/10 05:44:25;;;;;;;5.38;2.58;;;;;;;17.88;66.26;96066.84;5017159;28;20202;-86
2023/08/10 05:46:51;;;;;;;4.78;2.03;;;;;;;18.08;65.53;96067.13;5011249;28;20731;-85
2023/08/10 05:49:16;;;;;;;3.17;2.10;;;;;;;18.18;64.69;96067.66;5026491;28;20187;-86
2023/08/10 05:51:42;;;;;;;2.92;2.38;;;;;;;17.90;66.38;96067.47;5024338;28;20563;-85
2023/08/10 05:54:07;;;;;;;2.42;2.22;;;;;;;17.87;66.66;96062.59;5018381;28;20244;-86
2023/08/10 05:56:32;;;;;;;2.50;2.30;;;;;;;17.61;67.25;96068.25;5013726;28;20210;-85
2023/08/10 05:58:58;;;;;;;2.40;1.98;;;;;;;17.59;67.61;96066.78;5020132;28;20291;-85
2023/08/10 06:01:23;;;;;;;2.10;2.00;;;;;;;17.82;68.26;96071.00;5002943;28;20205;-85
2023/08/10 06:03:48;;;;;;;4.53;2.30;;;;;;;17.81;67.81;96071.19;5005141;28;20187;-85
2023/08/10 06:06:14;;;;;;;2.40;2.10;;;;;;;17.67;68.19;96064.91;5011551;28;20226;-85
2023/08/10 06:08:39;;;;;;;2.42;2.22;;;;;;;17.77;68.51;96072.56;5016507;28;20214;-86
2023/08/10 06:11:05;;;;;;;3.08;2.30;;;;;;;18.07;67.10;96068.13;5023312;28;20183;-85
2023/08/10 06:13:31;;;;;;;2.75;2.22;;;;;;;17.67;68.57;96069.31;5012729;28;20187;-85
2023/08/10 06:15:56;;;;;;;2.78;2.30;;;;;;;17.58;68.79;96063.34;4999204;28;20310;-85
2023/08/10 06:18:22;;;;;;;2.80;2.38;;;;;;;17.72;68.56;96080.97;5018347;28;20195;-85
2023/08/10 06:20:47;;;;;;;2.60;2.30;;;;;;;17.81;68.47;96079.88;5017451;28;20223;-85
2023/08/10 06:23:13;;;;;;;2.88;2.67;;;;;;;17.68;68.92;96082.28;5001819;28;20355;-86
2023/08/10 06:25:39;;;;;;;3.25;2.70;;;;;;;17.74;68.99;96086.03;5005556;28;20299;-84
2023/08/10 06:28:06;;;;;;;2.38;2.10;;;;;;;17.95;68.36;96087.97;5014636;28;20214;-86
2023/08/10 06:30:32;;;;;;;2.95;2.40;;;;;;;17.90;69.63;96090.31;5011397;28;20249;-89
2023/08/10 06:32:57;;;;;;;3.38;2.20;;;;;;;18.15;68.87;96091.69;5013992;28;20198;-85
2023/08/10 06:35:28;;;;;;;3.13;2.25;;;;;;;18.38;68.23;96107.38;5004011;28;20182;-85
2023/08/10 06:37:53;;;;;;;3.30;2.70;;;;;;;18.42;68.19;96106.00;5028069;28;20187;-85
2023/08/10 06:40:20;;;;;;;2.95;2.28;;;;;;;18.55;67.88;96103.56;5021862;28;20192;-83
2023/08/10 06:42:45;;;;;;;2.75;2.55;;;;;;;18.49;67.32;96106.09;5028555;28;20229;-84
2023/08/10 06:45:10;;;;;;;3.50;2.72;;;;;;;18.59;67.25;96106.63;5025663;28;20663;-84
2023/08/10 06:47:36;;;;;;;3.00;2.70;;;;;;;19.05;66.32;96103.72;5011853;28;20695;-85
2023/08/10 06:50:02;;;;;;;4.00;2.42;;;;;;;19.37;65.42;96105.06;5024806;28;20647;-85
2023/08/10 06:52:27;;;;;;;2.58;2.38;;;;;;;19.85;62.32;96108.75;5012592;28;20616;-84
2023/08/10 06:54:52;;;;;;;2.97;2.47;;;;;;;21.19;59.23;96114.47;5017886;28;20799;-85
2023/08/10 06:57:21;;;;;;;2.35;2.08;;;;;;;22.01;55.50;96106.25;5022750;28;20250;-84
2023/08/10 06:59:47;;;;;;;2.10;1.90;;;;;;;22.17;53.68;96110.28;5016026;28;20228;-84
2023/08/10 07:02:13;;;;;;;4.38;2.25;;;;;;;22.48;50.97;96108.81;5016786;28;20337;-84
2023/08/10 07:04:39;;;;;;;2.83;2.03;;;;;;;22.65;51.34;96103.88;5002992;28;20205;-85
2023/08/10 07:07:05;;;;;;;3.45;2.13;;;;;;;23.30;48.46;96110.72;5029492;28;20198;-85
2023/08/10 07:09:30;;;;;;;2.40;2.03;;;;;;;22.89;48.99;96117.25;5014111;28;20187;-85
2023/08/10 07:11:55;;;;;;;2.20;2.00;;;;;;;22.60;50.19;96113.25;5013219;28;20708;-85
2023/08/10 07:14:21;;;;;;;2.40;2.20;;;;;;;22.81;49.75;96119.31;5016439;28;20671;-84
2023/08/10 07:16:46;;;;;;;3.78;1.67;;;;;;;22.42;50.64;96128.97;5008829;28;20225;-85
2023/08/10 07:19:11;;;;;;;2.10;1.90;;;;;;;22.80;50.63;96128.28;5023418;28;20258;-85
2023/08/10 07:21:37;;;;;;;2.92;2.08;;;;;;;23.33;48.16;96134.16;5015840;28;20203;-85
2023/08/10 07:24:05;;;;;;;2.25;2.00;;;;;;;23.27;48.97;96131.53;5026781;28;20675;-85
2023/08/10 07:26:31;;;;;;;3.70;1.95;;;;;;;22.95;48.85;96135.97;5030836;28;20650;-84
2023/08/10 07:28:57;;;;;;;2.08;1.98;;;;;;;23.39;49.43;96133.28;5030537;28;20191;-82
2023/08/10 07:31:23;;;;;;;3.00;1.80;;;;;;;23.25;49.47;96141.53;5025321;28;20194;-84
2023/08/10 07:33:48;;;;;;;1.85;1.75;;;;;;;23.00;50.27;96134.31;5003839;28;20274;-85
2023/08/10 07:36:13;;;;;;;3.13;2.10;;;;;;;23.29;50.18;96132.13;5020886;28;20743;-85
2023/08/10 07:38:39;;;;;;;2.55;2.33;;;;;;;22.89;50.69;96130.50;5009430;28;20190;-84
2023/08/10 07:41:04;;;;;;;2.90;2.25;;;;;;;22.77;50.74;96121.53;5015228;28;20317;-85
2023/08/10 07:43:29;;;;;;;3.78;2.28;;;;;;;22.49;52.10;96124.47;5015530;28;20222;-85
2023/08/10 07:45:55;;;;;;;2.42;2.20;;;;;;;22.78;52.08;96123.16;5013109;28;20226;-85
2023/08/10 07:48:20;;;;;;;2.38;2.13;;;;;;;22.65;52.76;96123.22;5024219;28;20920;-88
2023/08/10 07:50:47;;;;;;;3.60;2.25;;;;;;;22.99;51.39;96134.53;5016724;28;20186;-87
2023/08/10 07:53:12;;;;;;;2.70;2.50;;;;;;;22.82;52.53;96134.97;5016959;28;20186;-86
2023/08/10 07:55:37;;;;;;;2.65;2.45;;;;;;;22.55;53.47;96138.72;5023297;28;20184;-81
2023/08/10 07:58:03;;;;;;;3.20;2.13;;;;;;;22.83;52.50;96136.59;5006927;28;20229;-86
2023/08/10 08:00:28;;;;;;;2.20;2.00;;;;;;;22.43;52.53;96135.06;5014221;28;20281;-83
2023/08/10 08:02:53;;;;;;;3.30;2.22;;;;;;;22.36;54.10;96139.59;5002603;28;20293;-83
2023/08/10 08:05:19;;;;;;;3.83;2.40;;;;;;;22.51;53.25;96137.50;5011889;28;20203;-83
2023/08/10 08:07:44;;;;;;;4.40;2.70;;;;;;;22.22;54.81;96136.16;5011495;28;20207;-83
2023/08/10 08:10:10;;;;;;;3.30;2.50;;;;;;;21.57;55.53;96146.50;5019783;28;20197;-83
2023/08/10 08:12:35;;;;;;;3.30;2.47;;;;;;;21.85;55.59;96141.03;5014361;28;20191;-83
2023/08/10 08:15:01;;;;;;;3.00;2.40;;;;;;;21.51;56.21;96139.38;5019015;28;20188;-83
2023/08/10 08:17:27;;;;;;;2.38;2.20;;;;;;;21.10;58.66;96144.72;5025952;28;20272;-83
2023/08/10 08:19:55;;;;;;;2.75;2.50;;;;;;;21.08;59.76;96137.00;5006616;28;20183;-82
2023/08/10 08:22:22;;;;;;;3.42;2.08;;;;;;;21.24;60.00;96135.03;5032032;28;20200;-83
2023/08/10 08:24:51;;;;;;;3.42;2.55;;;;;;;20.88;60.56;96136.94;5013608;28;20198;-82
2023/08/10 08:27:16;;;;;;;3.08;2.72;;;;;;;21.42;57.41;96132.66;5027787;28;20203;-82
2023/08/10 08:29:41;;;;;;;2.60;2.40;;;;;;;21.13;59.46;96121.41;5021202;28;20699;-82
2023/08/10 08:32:06;;;;;;;3.00;2.65;;;;;;;21.17;57.79;96127.88;5000789;28;20333;-83
2023/08/10 08:34:35;;;;;;;3.47;2.50;;;;;;;21.29;57.97;96137.91;5003714;28;20258;-83
2023/08/10 08:37:00;;;;;;;2.35;2.15;;;;;;;21.05;59.36;96132.13;5005286;28;20249;-83
2023/08/10 08:39:26;;;;;;;3.95;2.55;;;;;;;20.73;61.64;96128.34;5021904;28;20179;-83
2023/08/10 08:41:52;;;;;;;3.15;2.38;;;;;;;20.78;62.02;96133.06;5016162;28;20206;-83
2023/08/10 08:44:17;;;;;;;2.88;1.90;;;;;;;21.29;59.84;96127.34;5030303;28;20281;-82
2023/08/10 08:46:44;;;;;;;3.28;2.45;;;;;;;20.82;60.98;96129.00;5020093;28;20202;-83
2023/08/10 08:49:09;;;;;;;5.40;2.50;;;;;;;20.25;62.20;96130.91;5020907;28;20182;-83
2023/08/10 08:51:36;;;;;;;3.05;2.75;;;;;;;20.68;60.29;96129.97;5001567;28;20227;-83
2023/08/10 08:54:01;;;;;;;4.35;2.88;;;;;;;21.05;59.28;96126.84;5021856;28;20194;-84
2023/08/10 08:56:27;;;;;;;3.15;2.90;;;;;;;20.89;58.68;96127.19;5021561;28;20207;-83
2023/08/10 08:58:53;;;;;;;2.78;2.58;;;;;;;21.43;58.29;96131.63;5024092;28;20197;-82
2023/08/10 09:01:19;;;;;;;3.00;2.72;;;;;;;20.96;58.61;96130.69;5012146;28;20199;-82
2023/08/10 09:03:45;;;;;;;3.28;2.70;;;;;;;21.15;58.57;96122.00;5012688;28;20233;-83
2023/08/10 09:06:10;;;;;;;2.72;2.45;;;;;;;21.00;58.97;96129.25;5013417;28;20679;-83
2023/08/10 09:08:38;;;;;;;2.63;2.42;;;;;;;21.53;55.07;96123.31;5027866;28;20184;-81
2023/08/10 09:11:04;;;;;;;3.47;2.50;;;;;;;21.97;55.32;96120.06;5015735;28;20190;-82
2023/08/10 09:13:29;;;;;;;2.45;2.25;;;;;;;21.55;55.65;96123.91;5024479;28;20186;-81
2023/08/10 09:16:12;;;;;;;2.65;2.45;;;;;;;21.42;57.88;96124.72;5022056;28;20206;-83
2023/08/10 09:18:39;;;;;;;3.65;2.72;;;;;;;20.78;59.37;96120.66;5011820;28;20214;-82
2023/08/10 09:21:17;;;;;;;3.60;2.55;;;;;;;21.01;58.95;96115.03;5029429;28;20647;-82
2023/08/10 09:23:47;;;;;;;3.47;2.80;;;;;;;21.47;60.06;96109.09;5012054;28;20260;-82
2023/08/10 09:26:16;;;;;;;3.95;2.90;;;;;;;21.77;57.27;96098.94;5028998;28;20301;-82
2023/08/10 09:28:41;;;;;;;5.63;2.63;;;;;;;21.67;57.68;96098.53;5012106;28;20190;-83
2023/08/10 09:31:07;;;;;;;3.10;2.45;;;;;;;22.29;57.67;96103.38;5013502;28;20190;-83
2023/08/10 09:33:35;;;;;;;4.18;2.67;;;;;;;22.52;55.60;96100.25;5020741;28;20190;-82
2023/08/10 09:36:02;;;;;;;5.13;2.67;;;;;;;22.22;55.18;96102.56;5020368;28;20606;-83
2023/08/10 09:38:27;;;;;;;3.10;2.55;;;;;;;22.10;54.99;96098.13;5025903;28;20183;-82
2023/08/10 09:41:12;;;;;;;3.42;2.90;;;;;;;22.03;54.99;96096.25;5022849;28;20813;-82
2023/08/10 09:43:39;;;;;;;4.28;2.72;;;;;;;21.98;56.83;96097.88;4999699;28;20269;-82
2023/08/10 09:46:05;;;;;;;2.78;2.58;;;;;;;21.78;57.25;96087.34;5022818;28;20203;-83
2023/08/10 09:48:35;;;;;;;3.10;2.75;;;;;;;21.75;54.49;96079.81;5016698;28;20190;-83
2023/08/10 09:51:02;;;;;;;4.45;2.63;;;;;;;21.65;54.46;96085.53;5013463;28;20186;-82
2023/08/10 09:53:27;;;;;;;5.32;2.45;;;;;;;22.27;54.43;96080.81;5025447;28;20194;-82
2023/08/10 09:55:53;;;;;;;3.17;2.40;;;;;;;22.94;54.11;96086.66;5019128;28;20207;-82
2023/08/10 09:58:19;;;;;;;3.55;2.50;;;;;;;23.12;51.67;96086.78;5024203;28;20187;-82
2023/08/10 10:00:45;;;;;;;3.70;2.83;;;;;;;23.02;51.31;96084.59;5015452;28;20282;-82
2023/08/10 10:03:10;;;;;;;2.78;2.53;;;;;;;22.89;51.78;96077.53;5000816;28;20203;-82
2023/08/10 10:05:36;;;;;;;3.20;2.88;;;;;;;22.45;52.33;96074.84;5028272;28;20202;-83
2023/08/10 10:08:03;;;;;;;3.28;2.60;;;;;;;22.18;54.41;96069.63;5016217;28;20179;-85
2023/08/10 10:10:29;;;;;;;3.00;2.70;;;;;;;22.47;52.16;96075.44;5021365;28;20198;-82
2023/08/10 10:12:55;;;;;;;2.60;2.40;;;;;;;22.43;52.18;96082.16;5005305;28;20182;-82
2023/08/10 10:15:21;;;;;;;2.90;2.67;;;;;;;22.63;52.01;96080.28;5007265;28;20653;-82
2023/08/10 10:17:51;;;;;;;2.50;2.30;;;;;;;22.49;52.55;96078.69;5000839;28;20214;-82
2023/08/10 10:20:16;;;;;;;3.13;2.83;;;;;;;21.87;53.33;96077.38;5003185;28;20711;-83
2023/08/10 10:22:41;;;;;;;4.72;2.50;;;;;;;21.21;54.49;96081.59;5026296;28;20290;-83
2023/08/10 10:25:14;;;;;;;2.83;2.60;;;;;;;21.39;54.41;96082.88;5011212;28;20263;-84
2023/08/10 10:27:40;;;;;;;3.92;2.35;;;;;;;21.40;54.31;96076.56;5019101;28;20207;-83
2023/08/10 10:30:19;;;;;;;4.10;2.70;;;;;;;22.05;51.85;96070.44;5013839;28;20785;-83
2023/08/10 10:32:46;;;;;;;2.92;2.60;;;;;;;22.33;50.90;96074.66;5023995;28;20273;-82
2023/08/10 10:35:15;;;;;;;3.20;2.97;;;;;;;22.73;51.14;96080.63;5012702;28;20190;-83
2023/08/10 10:37:40;;;;;;;3.65;2.53;;;;;;;22.42;49.85;96076.06;5011153;28;20587;-84
2023/08/10 10:40:18;;;;;;;4.38;2.60;;;;;;;22.63;48.71;96072.34;5013127;28;20186;-82
2023/08/10 10:43:08;;;;;;;3.50;2.33;;;;;;;23.23;48.13;96069.38;5029248;28;20229;-84
2023/08/10 10:45:40;;;;;;;2.60;2.30;;;;;;;23.34;48.40;96058.91;5027711;28;20186;-84
2023/08/10 10:48:06;;;;;;;3.78;2.67;;;;;;;23.55;48.50;96062.22;5011669;28;20282;-83
2023/08/10 10:50:33;;;;;;;2.50;2.30;;;;;;;23.54;49.35;96052.66;5024346;28;20692;-81
2023/08/10 10:53:05;;;;;;;3.47;2.70;;;;;;;23.85;47.37;96044.63;5019893;28;20206;-80
2023/08/10 10:55:33;;;;;;;4.65;2.72;;;;;;;23.31;47.20;96058.53;5008659;28;20220;-80
2023/08/10 10:58:00;;;;;;;4.35;2.92;;;;;;;22.66;48.02;96055.22;5027365;28;20187;-78
2023/08/10 11:00:25;;;;;;;2.75;2.40;;;;;;;23.07;47.79;96046.88;5031619;28;20182;-79
2023/08/10 11:02:51;;;;;;;3.10;2.90;;;;;;;22.95;47.01;96045.91;5028067;28;20626;-83
2023/08/10 11:05:17;;;;;;;2.63;2.33;;;;;;;22.58;48.67;96043.03;5027890;28;20289;-81
2023/08/10 11:07:44;;;;;;;5.18;3.00;;;;;;;22.76;49.45;96040.50;5025396;28;20210;-81
2023/08/10 11:10:10;;;;;;;2.90;2.55;;;;;;;23.01;48.32;96037.13;5023328;28;20269;-79
2023/08/10 11:12:39;;;;;;;2.97;2.67;;;;;;;22.64;49.26;96042.19;5020126;28;20610;-79
2023/08/10 11:15:10;;;;;;;2.90;2.60;;;;;;;22.83;48.28;96035.16;5028785;28;20174;-79
2023/08/10 11:17:39;;;;;;;3.97;2.70;;;;;;;23.20;46.83;96041.47;5012595;28;20298;-82
2023/08/10 11:20:11;;;;;;;2.72;2.45;;;;;;;23.67;46.78;96037.47;5014635;28;20213;-82
2023/08/10 11:22:38;;;;;;;2.75;2.47;;;;;;;23.78;46.25;96035.97;5019603;28;20684;-82
2023/08/10 11:25:11;;;;;;;2.80;2.60;;;;;;;23.63;47.68;96027.53;5026065;28;20199;-82
2023/08/10 11:27:39;;;;;;;3.38;2.60;;;;;;;23.94;46.59;96039.88;5017427;28;20340;-82
2023/08/10 11:30:05;;;;;;;3.80;2.65;;;;;;;23.63;47.26;96035.47;5017536;28;20194;-82
2023/08/10 11:32:31;;;;;;;3.42;2.70;;;;;;;23.50;46.76;96025.78;5016890;28;20191;-83